sensor_id;sensor_type;location;lat;lon;timestamp;P1;durP1;ratioP1;P2;durP2;ratioP2
77513;SDS011;66626;48.872;9.084;2024-01-15T00:00:20;13.73;;;5.68;;
77513;SDS011;66626;48.872;9.084;2024-01-15T00:02:46;13.68;;;5.05;;
77513;SDS011;66626;48.872;9.084;2024-01-15T00:05:12;17.27;;;6.28;;
77513;SDS011;66626;48.872;9.084;2024-01-15T00:07:37;13.50;;;4.63;;
77513;SDS011;66626;48.872;9.084;2024-01-15T00:10:03;14.02;;;6.25;;
77513;SDS011;66626;48.872;9.084;2024-01-15T00:12:29;16.00;;;5.07;;
77513;SDS011;66626;48.872;9.084;2024-01-15T00:14:54;19.27;;;7.13;;
77513;SDS011;66626;48.872;9.084;2024-01-15T00:17:19;12.52;;;6.40;;
77513;SDS011;66626;48.872;9.084;2024-01-15T00:19:45;16.85;;;6.78;;
77513;SDS011;66626;48.872;9.084;2024-01-15T00:22:10;9.65;;;5.50;;
77513;SDS011;66626;48.872;9.084;2024-01-15T00:24:38;14.05;;;4.43;;
77513;SDS011;66626;48.872;9.084;2024-01-15T00:27:03;8.20;;;3.03;;
77513;SDS011;66626;48.872;9.084;2024-01-15T00:29:28;12.27;;;5.20;;
77513;SDS011;66626;48.872;9.084;2024-01-15T00:31:54;9.13;;;5.35;;
77513;SDS011;66626;48.872;9.084;2024-01-15T00:34:19;17.80;;;4.95;;
77513;SDS011;66626;48.872;9.084;2024-01-15T00:36:44;5.78;;;4.25;;
77513;SDS011;66626;48.872;9.084;2024-01-15T00:39:12;9.40;;;4.57;;
77513;SDS011;66626;48.872;9.084;2024-01-15T00:41:38;15.32;;;5.32;;
77513;SDS011;66626;48.872;9.084;2024-01-15T00:44:03;9.00;;;3.67;;
77513;SDS011;66626;48.872;9.084;2024-01-15T00:46:29;13.15;;;5.53;;
77513;SDS011;66626;48.872;9.084;2024-01-15T00:48:54;10.88;;;5.30;;
77513;SDS011;66626;48.872;9.084;2024-01-15T00:51:19;12.20;;;4.63;;
77513;SDS011;66626;48.872;9.084;2024-01-15T00:53:45;21.10;;;6.18;;
77513;SDS011;66626;48.872;9.084;2024-01-15T00:56:10;10.80;;;4.20;;
77513;SDS011;66626;48.872;9.084;2024-01-15T00:58:35;8.23;;;3.90;;
77513;SDS011;66626;48.872;9.084;2024-01-15T01:01:01;13.73;;;4.20;;
77513;SDS011;66626;48.872;9.084;2024-01-15T01:03:26;13.25;;;4.45;;
77513;SDS011;66626;48.872;9.084;2024-01-15T01:05:51;11.02;;;5.40;;
77513;SDS011;66626;48.872;9.084;2024-01-15T01:08:19;17.95;;;4.15;;
77513;SDS011;66626;48.872;9.084;2024-01-15T01:10:44;15.32;;;6.35;;
77513;SDS011;66626;48.872;9.084;2024-01-15T01:13:10;16.05;;;4.47;;
77513;SDS011;66626;48.872;9.084;2024-01-15T01:15:35;10.90;;;3.30;;
77513;SDS011;66626;48.872;9.084;2024-01-15T01:18:01;18.05;;;6.45;;
77513;SDS011;66626;48.872;9.084;2024-01-15T01:20:26;14.25;;;5.47;;
77513;SDS011;66626;48.872;9.084;2024-01-15T01:22:51;14.10;;;5.55;;
77513;SDS011;66626;48.872;9.084;2024-01-15T01:25:17;16.65;;;6.85;;
77513;SDS011;66626;48.872;9.084;2024-01-15T01:27:42;19.38;;;5.55;;
77513;SDS011;66626;48.872;9.084;2024-01-15T01:30:08;13.50;;;4.22;;
77513;SDS011;66626;48.872;9.084;2024-01-15T01:32:33;14.45;;;4.80;;
77513;SDS011;66626;48.872;9.084;2024-01-15T01:34:59;14.40;;;4.80;;
77513;SDS011;66626;48.872;9.084;2024-01-15T01:37:24;15.10;;;4.82;;
77513;SDS011;66626;48.872;9.084;2024-01-15T01:39:50;14.02;;;5.57;;
77513;SDS011;66626;48.872;9.084;2024-01-15T01:42:15;12.73;;;5.30;;
77513;SDS011;66626;48.872;9.084;2024-01-15T01:44:40;13.27;;;4.25;;
77513;SDS011;66626;48.872;9.084;2024-01-15T01:47:05;12.40;;;5.80;;
77513;SDS011;66626;48.872;9.084;2024-01-15T01:49:31;18.13;;;4.85;;
77513;SDS011;66626;48.872;9.084;2024-01-15T01:51:57;13.38;;;4.60;;
77513;SDS011;66626;48.872;9.084;2024-01-15T01:54:24;11.30;;;4.43;;
77513;SDS011;66626;48.872;9.084;2024-01-15T01:56:50;11.05;;;4.50;;
77513;SDS011;66626;48.872;9.084;2024-01-15T01:59:16;9.38;;;4.22;;
77513;SDS011;66626;48.872;9.084;2024-01-15T02:01:42;9.65;;;4.07;;
77513;SDS011;66626;48.872;9.084;2024-01-15T02:04:08;12.80;;;5.50;;
77513;SDS011;66626;48.872;9.084;2024-01-15T02:06:34;13.82;;;4.28;;
77513;SDS011;66626;48.872;9.084;2024-01-15T02:08:59;11.95;;;4.47;;
77513;SDS011;66626;48.872;9.084;2024-01-15T02:11:24;18.67;;;4.82;;
77513;SDS011;66626;48.872;9.084;2024-01-15T02:13:50;15.13;;;5.20;;
77513;SDS011;66626;48.872;9.084;2024-01-15T02:16:15;7.45;;;3.40;;
77513;SDS011;66626;48.872;9.084;2024-01-15T02:18:44;14.23;;;3.97;;
77513;SDS011;66626;48.872;9.084;2024-01-15T02:21:10;7.00;;;4.18;;
77513;SDS011;66626;48.872;9.084;2024-01-15T02:23:36;8.77;;;4.03;;
77513;SDS011;66626;48.872;9.084;2024-01-15T02:26:02;12.02;;;4.97;;
77513;SDS011;66626;48.872;9.084;2024-01-15T02:28:28;13.02;;;4.55;;
77513;SDS011;66626;48.872;9.084;2024-01-15T02:30:54;12.25;;;4.53;;
77513;SDS011;66626;48.872;9.084;2024-01-15T02:33:19;9.48;;;2.88;;
77513;SDS011;66626;48.872;9.084;2024-01-15T02:35:44;12.13;;;3.95;;
77513;SDS011;66626;48.872;9.084;2024-01-15T02:38:11;9.32;;;3.88;;
77513;SDS011;66626;48.872;9.084;2024-01-15T02:40:39;11.57;;;4.40;;
77513;SDS011;66626;48.872;9.084;2024-01-15T02:43:04;13.52;;;4.53;;
77513;SDS011;66626;48.872;9.084;2024-01-15T02:45:29;8.63;;;4.80;;
77513;SDS011;66626;48.872;9.084;2024-01-15T02:47:55;11.25;;;3.92;;
77513;SDS011;66626;48.872;9.084;2024-01-15T02:50:20;13.00;;;5.25;;
77513;SDS011;66626;48.872;9.084;2024-01-15T02:52:48;15.73;;;3.95;;
77513;SDS011;66626;48.872;9.084;2024-01-15T02:55:14;11.80;;;3.55;;
77513;SDS011;66626;48.872;9.084;2024-01-15T02:57:39;8.40;;;3.47;;
77513;SDS011;66626;48.872;9.084;2024-01-15T03:00:05;10.77;;;3.22;;
77513;SDS011;66626;48.872;9.084;2024-01-15T03:02:36;8.77;;;3.47;;
77513;SDS011;66626;48.872;9.084;2024-01-15T03:05:04;14.07;;;4.65;;
77513;SDS011;66626;48.872;9.084;2024-01-15T03:07:29;8.55;;;3.08;;
77513;SDS011;66626;48.872;9.084;2024-01-15T03:09:58;12.57;;;3.47;;
77513;SDS011;66626;48.872;9.084;2024-01-15T03:12:23;10.30;;;4.22;;
77513;SDS011;66626;48.872;9.084;2024-01-15T03:14:48;10.48;;;3.78;;
77513;SDS011;66626;48.872;9.084;2024-01-15T03:17:13;11.07;;;4.07;;
77513;SDS011;66626;48.872;9.084;2024-01-15T03:19:39;15.63;;;5.18;;
77513;SDS011;66626;48.872;9.084;2024-01-15T03:22:04;10.32;;;4.32;;
77513;SDS011;66626;48.872;9.084;2024-01-15T03:24:31;9.55;;;4.00;;
77513;SDS011;66626;48.872;9.084;2024-01-15T03:26:56;9.00;;;3.15;;
77513;SDS011;66626;48.872;9.084;2024-01-15T03:29:22;16.63;;;4.65;;
77513;SDS011;66626;48.872;9.084;2024-01-15T03:31:48;8.43;;;3.90;;
77513;SDS011;66626;48.872;9.084;2024-01-15T03:34:13;8.85;;;3.75;;
77513;SDS011;66626;48.872;9.084;2024-01-15T03:36:38;8.25;;;3.50;;
77513;SDS011;66626;48.872;9.084;2024-01-15T03:39:03;14.30;;;4.57;;
77513;SDS011;66626;48.872;9.084;2024-01-15T03:41:29;8.80;;;3.58;;
77513;SDS011;66626;48.872;9.084;2024-01-15T03:43:54;11.63;;;3.40;;
77513;SDS011;66626;48.872;9.084;2024-01-15T03:46:19;10.15;;;3.00;;
77513;SDS011;66626;48.872;9.084;2024-01-15T03:48:45;9.77;;;4.25;;
77513;SDS011;66626;48.872;9.084;2024-01-15T03:51:10;12.30;;;4.40;;
77513;SDS011;66626;48.872;9.084;2024-01-15T03:53:35;10.15;;;4.22;;
77513;SDS011;66626;48.872;9.084;2024-01-15T03:56:01;23.23;;;4.93;;
77513;SDS011;66626;48.872;9.084;2024-01-15T03:58:26;9.82;;;4.15;;
77513;SDS011;66626;48.872;9.084;2024-01-15T04:00:51;11.38;;;3.70;;
77513;SDS011;66626;48.872;9.084;2024-01-15T04:03:17;13.80;;;3.35;;
77513;SDS011;66626;48.872;9.084;2024-01-15T04:05:42;8.10;;;4.07;;
77513;SDS011;66626;48.872;9.084;2024-01-15T04:08:07;11.10;;;3.65;;
77513;SDS011;66626;48.872;9.084;2024-01-15T04:10:33;7.38;;;4.00;;
77513;SDS011;66626;48.872;9.084;2024-01-15T04:12:58;6.82;;;3.42;;
77513;SDS011;66626;48.872;9.084;2024-01-15T04:15:25;8.05;;;3.53;;
77513;SDS011;66626;48.872;9.084;2024-01-15T04:17:50;6.75;;;2.42;;
77513;SDS011;66626;48.872;9.084;2024-01-15T04:20:15;8.43;;;3.00;;
77513;SDS011;66626;48.872;9.084;2024-01-15T04:22:41;6.70;;;2.58;;
77513;SDS011;66626;48.872;9.084;2024-01-15T04:25:06;9.60;;;3.20;;
77513;SDS011;66626;48.872;9.084;2024-01-15T04:27:32;5.60;;;3.00;;
77513;SDS011;66626;48.872;9.084;2024-01-15T04:29:57;7.55;;;2.25;;
77513;SDS011;66626;48.872;9.084;2024-01-15T04:32:22;7.10;;;3.10;;
77513;SDS011;66626;48.872;9.084;2024-01-15T04:34:47;8.43;;;4.00;;
77513;SDS011;66626;48.872;9.084;2024-01-15T04:37:13;10.13;;;2.83;;
77513;SDS011;66626;48.872;9.084;2024-01-15T04:39:39;6.22;;;3.10;;
77513;SDS011;66626;48.872;9.084;2024-01-15T04:42:04;7.55;;;3.25;;
77513;SDS011;66626;48.872;9.084;2024-01-15T04:44:29;6.38;;;2.40;;
77513;SDS011;66626;48.872;9.084;2024-01-15T04:46:55;7.28;;;3.95;;
77513;SDS011;66626;48.872;9.084;2024-01-15T04:49:20;9.85;;;3.08;;
77513;SDS011;66626;48.872;9.084;2024-01-15T04:51:45;7.18;;;3.22;;
77513;SDS011;66626;48.872;9.084;2024-01-15T04:54:11;10.52;;;3.38;;
77513;SDS011;66626;48.872;9.084;2024-01-15T04:56:36;8.10;;;2.60;;
77513;SDS011;66626;48.872;9.084;2024-01-15T04:59:02;6.32;;;2.75;;
77513;SDS011;66626;48.872;9.084;2024-01-15T05:01:30;8.75;;;3.28;;
77513;SDS011;66626;48.872;9.084;2024-01-15T05:03:59;7.70;;;3.20;;
77513;SDS011;66626;48.872;9.084;2024-01-15T05:06:24;6.93;;;3.20;;
77513;SDS011;66626;48.872;9.084;2024-01-15T05:08:49;9.93;;;3.72;;
77513;SDS011;66626;48.872;9.084;2024-01-15T05:11:15;7.07;;;2.80;;
77513;SDS011;66626;48.872;9.084;2024-01-15T05:13:41;6.32;;;2.60;;
77513;SDS011;66626;48.872;9.084;2024-01-15T05:16:06;6.65;;;2.63;;
77513;SDS011;66626;48.872;9.084;2024-01-15T05:18:31;5.63;;;2.78;;
77513;SDS011;66626;48.872;9.084;2024-01-15T05:20:57;5.88;;;2.15;;
77513;SDS011;66626;48.872;9.084;2024-01-15T05:23:22;9.60;;;3.50;;
77513;SDS011;66626;48.872;9.084;2024-01-15T05:25:47;8.18;;;3.65;;
77513;SDS011;66626;48.872;9.084;2024-01-15T05:28:13;9.35;;;3.63;;
77513;SDS011;66626;48.872;9.084;2024-01-15T05:30:39;9.02;;;3.35;;
77513;SDS011;66626;48.872;9.084;2024-01-15T05:33:04;6.82;;;2.45;;
77513;SDS011;66626;48.872;9.084;2024-01-15T05:35:29;11.85;;;3.55;;
77513;SDS011;66626;48.872;9.084;2024-01-15T05:37:55;9.35;;;3.38;;
77513;SDS011;66626;48.872;9.084;2024-01-15T05:40:20;11.75;;;4.18;;
77513;SDS011;66626;48.872;9.084;2024-01-15T05:42:45;7.55;;;2.85;;
77513;SDS011;66626;48.872;9.084;2024-01-15T05:45:11;7.53;;;3.33;;
77513;SDS011;66626;48.872;9.084;2024-01-15T05:47:36;5.28;;;2.65;;
77513;SDS011;66626;48.872;9.084;2024-01-15T05:50:01;4.05;;;1.88;;
77513;SDS011;66626;48.872;9.084;2024-01-15T05:52:27;14.13;;;3.80;;
77513;SDS011;66626;48.872;9.084;2024-01-15T05:54:52;9.98;;;4.22;;
77513;SDS011;66626;48.872;9.084;2024-01-15T05:57:18;13.60;;;5.22;;
77513;SDS011;66626;48.872;9.084;2024-01-15T05:59:44;8.70;;;4.75;;
77513;SDS011;66626;48.872;9.084;2024-01-15T06:02:09;7.97;;;2.80;;
77513;SDS011;66626;48.872;9.084;2024-01-15T06:04:38;6.85;;;2.42;;
77513;SDS011;66626;48.872;9.084;2024-01-15T06:07:04;6.82;;;2.75;;
77513;SDS011;66626;48.872;9.084;2024-01-15T06:09:29;5.28;;;2.58;;
77513;SDS011;66626;48.872;9.084;2024-01-15T06:11:55;9.93;;;4.15;;
77513;SDS011;66626;48.872;9.084;2024-01-15T06:14:20;15.73;;;5.35;;
77513;SDS011;66626;48.872;9.084;2024-01-15T06:16:45;13.38;;;4.88;;
77513;SDS011;66626;48.872;9.084;2024-01-15T06:19:11;7.20;;;3.30;;
77513;SDS011;66626;48.872;9.084;2024-01-15T06:21:36;12.13;;;4.80;;
77513;SDS011;66626;48.872;9.084;2024-01-15T06:24:01;12.75;;;3.42;;
77513;SDS011;66626;48.872;9.084;2024-01-15T06:26:27;11.63;;;4.07;;
77513;SDS011;66626;48.872;9.084;2024-01-15T06:28:52;11.23;;;4.22;;
77513;SDS011;66626;48.872;9.084;2024-01-15T06:31:17;10.45;;;3.55;;
77513;SDS011;66626;48.872;9.084;2024-01-15T06:33:42;6.55;;;2.65;;
77513;SDS011;66626;48.872;9.084;2024-01-15T06:36:09;12.27;;;4.45;;
77513;SDS011;66626;48.872;9.084;2024-01-15T06:38:35;6.30;;;2.80;;
77513;SDS011;66626;48.872;9.084;2024-01-15T06:41:01;6.85;;;3.28;;
77513;SDS011;66626;48.872;9.084;2024-01-15T06:43:26;7.68;;;3.67;;
77513;SDS011;66626;48.872;9.084;2024-01-15T06:45:51;27.17;;;4.15;;
77513;SDS011;66626;48.872;9.084;2024-01-15T06:48:17;5.85;;;2.50;;
77513;SDS011;66626;48.872;9.084;2024-01-15T06:50:43;10.93;;;3.55;;
77513;SDS011;66626;48.872;9.084;2024-01-15T06:53:08;10.30;;;4.35;;
77513;SDS011;66626;48.872;9.084;2024-01-15T06:55:33;12.32;;;4.47;;
77513;SDS011;66626;48.872;9.084;2024-01-15T06:57:59;6.18;;;2.95;;
77513;SDS011;66626;48.872;9.084;2024-01-15T07:00:24;10.70;;;4.60;;
77513;SDS011;66626;48.872;9.084;2024-01-15T07:02:49;8.52;;;3.05;;
77513;SDS011;66626;48.872;9.084;2024-01-15T07:05:15;4.55;;;2.30;;
77513;SDS011;66626;48.872;9.084;2024-01-15T07:07:40;7.95;;;2.72;;
77513;SDS011;66626;48.872;9.084;2024-01-15T07:10:06;9.30;;;3.97;;
77513;SDS011;66626;48.872;9.084;2024-01-15T07:12:31;8.48;;;3.30;;
77513;SDS011;66626;48.872;9.084;2024-01-15T07:14:57;9.23;;;3.38;;
77513;SDS011;66626;48.872;9.084;2024-01-15T07:17:22;10.63;;;3.85;;
77513;SDS011;66626;48.872;9.084;2024-01-15T07:19:48;7.60;;;2.53;;
77513;SDS011;66626;48.872;9.084;2024-01-15T07:22:13;9.77;;;3.80;;
77513;SDS011;66626;48.872;9.084;2024-01-15T07:24:40;6.78;;;3.03;;
77513;SDS011;66626;48.872;9.084;2024-01-15T07:27:05;10.35;;;3.05;;
77513;SDS011;66626;48.872;9.084;2024-01-15T07:29:30;5.70;;;2.35;;
77513;SDS011;66626;48.872;9.084;2024-01-15T07:31:58;6.03;;;2.67;;
77513;SDS011;66626;48.872;9.084;2024-01-15T07:34:23;7.20;;;3.30;;
77513;SDS011;66626;48.872;9.084;2024-01-15T07:36:49;15.45;;;3.97;;
77513;SDS011;66626;48.872;9.084;2024-01-15T07:39:14;7.75;;;2.90;;
77513;SDS011;66626;48.872;9.084;2024-01-15T07:41:39;7.95;;;2.80;;
77513;SDS011;66626;48.872;9.084;2024-01-15T07:44:05;8.55;;;2.97;;
77513;SDS011;66626;48.872;9.084;2024-01-15T07:46:30;5.25;;;2.10;;
77513;SDS011;66626;48.872;9.084;2024-01-15T07:48:55;8.60;;;3.75;;
77513;SDS011;66626;48.872;9.084;2024-01-15T07:51:22;9.50;;;3.53;;
77513;SDS011;66626;48.872;9.084;2024-01-15T07:53:48;7.50;;;2.75;;
77513;SDS011;66626;48.872;9.084;2024-01-15T07:56:14;7.38;;;3.13;;
77513;SDS011;66626;48.872;9.084;2024-01-15T07:58:39;10.18;;;3.78;;
77513;SDS011;66626;48.872;9.084;2024-01-15T08:01:04;6.55;;;2.75;;
77513;SDS011;66626;48.872;9.084;2024-01-15T08:03:31;4.82;;;2.00;;
77513;SDS011;66626;48.872;9.084;2024-01-15T08:05:56;7.07;;;3.40;;
77513;SDS011;66626;48.872;9.084;2024-01-15T08:08:23;6.50;;;2.47;;
77513;SDS011;66626;48.872;9.084;2024-01-15T08:10:49;4.20;;;1.88;;
77513;SDS011;66626;48.872;9.084;2024-01-15T08:13:14;10.88;;;3.60;;
77513;SDS011;66626;48.872;9.084;2024-01-15T08:15:40;7.22;;;2.83;;
77513;SDS011;66626;48.872;9.084;2024-01-15T08:18:06;6.70;;;3.28;;
77513;SDS011;66626;48.872;9.084;2024-01-15T08:20:31;7.20;;;3.15;;
77513;SDS011;66626;48.872;9.084;2024-01-15T08:22:57;4.80;;;2.15;;
77513;SDS011;66626;48.872;9.084;2024-01-15T08:25:22;4.28;;;2.35;;
77513;SDS011;66626;48.872;9.084;2024-01-15T08:27:47;12.50;;;3.40;;
77513;SDS011;66626;48.872;9.084;2024-01-15T08:30:13;5.72;;;1.92;;
77513;SDS011;66626;48.872;9.084;2024-01-15T08:32:38;7.07;;;2.90;;
77513;SDS011;66626;48.872;9.084;2024-01-15T08:35:07;6.05;;;3.03;;
77513;SDS011;66626;48.872;9.084;2024-01-15T08:37:33;9.93;;;3.15;;
77513;SDS011;66626;48.872;9.084;2024-01-15T08:39:58;8.07;;;2.92;;
77513;SDS011;66626;48.872;9.084;2024-01-15T08:42:24;3.30;;;0.73;;
77513;SDS011;66626;48.872;9.084;2024-01-15T08:44:49;6.65;;;3.15;;
77513;SDS011;66626;48.872;9.084;2024-01-15T08:47:15;6.78;;;2.80;;
77513;SDS011;66626;48.872;9.084;2024-01-15T08:49:40;7.28;;;2.90;;
77513;SDS011;66626;48.872;9.084;2024-01-15T08:52:08;5.55;;;2.30;;
77513;SDS011;66626;48.872;9.084;2024-01-15T08:54:33;6.32;;;2.80;;
77513;SDS011;66626;48.872;9.084;2024-01-15T08:56:58;13.65;;;2.75;;
77513;SDS011;66626;48.872;9.084;2024-01-15T08:59:24;7.97;;;2.60;;
77513;SDS011;66626;48.872;9.084;2024-01-15T09:01:51;6.75;;;2.78;;
77513;SDS011;66626;48.872;9.084;2024-01-15T09:04:16;10.00;;;2.63;;
77513;SDS011;66626;48.872;9.084;2024-01-15T09:06:44;6.93;;;2.92;;
77513;SDS011;66626;48.872;9.084;2024-01-15T09:09:10;4.63;;;2.20;;
77513;SDS011;66626;48.872;9.084;2024-01-15T09:11:37;6.63;;;3.25;;
77513;SDS011;66626;48.872;9.084;2024-01-15T09:14:02;8.05;;;2.28;;
77513;SDS011;66626;48.872;9.084;2024-01-15T09:16:28;5.00;;;2.13;;
77513;SDS011;66626;48.872;9.084;2024-01-15T09:18:53;8.00;;;2.42;;
77513;SDS011;66626;48.872;9.084;2024-01-15T09:21:18;5.07;;;1.83;;
77513;SDS011;66626;48.872;9.084;2024-01-15T09:23:44;4.05;;;2.28;;
77513;SDS011;66626;48.872;9.084;2024-01-15T09:26:09;11.27;;;4.10;;
77513;SDS011;66626;48.872;9.084;2024-01-15T09:28:34;7.88;;;2.60;;
77513;SDS011;66626;48.872;9.084;2024-01-15T09:31:00;7.18;;;2.50;;
77513;SDS011;66626;48.872;9.084;2024-01-15T09:33:25;4.57;;;2.20;;
77513;SDS011;66626;48.872;9.084;2024-01-15T09:35:50;5.88;;;2.55;;
77513;SDS011;66626;48.872;9.084;2024-01-15T09:38:16;5.38;;;1.88;;
77513;SDS011;66626;48.872;9.084;2024-01-15T09:40:43;9.50;;;2.75;;
77513;SDS011;66626;48.872;9.084;2024-01-15T09:43:10;7.68;;;2.47;;
77513;SDS011;66626;48.872;9.084;2024-01-15T09:45:36;5.43;;;2.47;;
77513;SDS011;66626;48.872;9.084;2024-01-15T09:48:02;5.68;;;2.45;;
77513;SDS011;66626;48.872;9.084;2024-01-15T09:50:27;2.58;;;1.23;;
77513;SDS011;66626;48.872;9.084;2024-01-15T09:52:53;4.90;;;1.67;;
77513;SDS011;66626;48.872;9.084;2024-01-15T09:55:19;4.75;;;2.03;;
77513;SDS011;66626;48.872;9.084;2024-01-15T09:57:44;6.40;;;2.63;;
77513;SDS011;66626;48.872;9.084;2024-01-15T10:00:11;6.50;;;2.35;;
77513;SDS011;66626;48.872;9.084;2024-01-15T10:02:37;3.80;;;2.15;;
77513;SDS011;66626;48.872;9.084;2024-01-15T10:05:02;6.32;;;2.38;;
77513;SDS011;66626;48.872;9.084;2024-01-15T10:07:28;6.30;;;3.03;;
77513;SDS011;66626;48.872;9.084;2024-01-15T10:09:54;4.82;;;2.15;;
77513;SDS011;66626;48.872;9.084;2024-01-15T10:12:21;11.73;;;2.38;;
77513;SDS011;66626;48.872;9.084;2024-01-15T10:14:47;4.25;;;1.50;;
77513;SDS011;66626;48.872;9.084;2024-01-15T10:17:14;5.45;;;1.73;;
77513;SDS011;66626;48.872;9.084;2024-01-15T10:19:40;4.20;;;1.75;;
77513;SDS011;66626;48.872;9.084;2024-01-15T10:22:06;21.40;;;8.25;;
77513;SDS011;66626;48.872;9.084;2024-01-15T10:24:34;7.50;;;2.35;;
77513;SDS011;66626;48.872;9.084;2024-01-15T10:27:07;5.75;;;1.77;;
77513;SDS011;66626;48.872;9.084;2024-01-15T10:29:34;4.38;;;2.10;;
77513;SDS011;66626;48.872;9.084;2024-01-15T10:31:59;7.53;;;1.95;;
77513;SDS011;66626;48.872;9.084;2024-01-15T10:34:25;3.30;;;1.27;;
77513;SDS011;66626;48.872;9.084;2024-01-15T10:36:51;6.72;;;2.28;;
77513;SDS011;66626;48.872;9.084;2024-01-15T10:39:22;4.55;;;1.52;;
77513;SDS011;66626;48.872;9.084;2024-01-15T10:41:48;8.77;;;2.45;;
77513;SDS011;66626;48.872;9.084;2024-01-15T10:44:14;5.13;;;2.03;;
77513;SDS011;66626;48.872;9.084;2024-01-15T10:46:40;6.50;;;2.22;;
77513;SDS011;66626;48.872;9.084;2024-01-15T10:49:05;4.78;;;1.90;;
77513;SDS011;66626;48.872;9.084;2024-01-15T10:51:31;4.65;;;1.75;;
77513;SDS011;66626;48.872;9.084;2024-01-15T10:53:57;4.72;;;1.98;;
77513;SDS011;66626;48.872;9.084;2024-01-15T10:56:25;10.00;;;2.40;;
77513;SDS011;66626;48.872;9.084;2024-01-15T10:58:50;7.80;;;2.10;;
77513;SDS011;66626;48.872;9.084;2024-01-15T11:01:16;6.50;;;2.60;;
77513;SDS011;66626;48.872;9.084;2024-01-15T11:03:42;7.32;;;2.95;;
77513;SDS011;66626;48.872;9.084;2024-01-15T11:06:17;6.57;;;2.30;;
77513;SDS011;66626;48.872;9.084;2024-01-15T11:08:49;3.85;;;1.80;;
77513;SDS011;66626;48.872;9.084;2024-01-15T11:11:18;7.35;;;3.03;;
77513;SDS011;66626;48.872;9.084;2024-01-15T11:13:43;8.38;;;2.88;;
77513;SDS011;66626;48.872;9.084;2024-01-15T11:16:12;4.93;;;2.05;;
77513;SDS011;66626;48.872;9.084;2024-01-15T11:18:42;8.80;;;2.35;;
77513;SDS011;66626;48.872;9.084;2024-01-15T11:24:00;7.05;;;2.67;;
77513;SDS011;66626;48.872;9.084;2024-01-15T11:28:51;13.20;;;4.00;;
77513;SDS011;66626;48.872;9.084;2024-01-15T11:31:17;8.88;;;3.60;;
77513;SDS011;66626;48.872;9.084;2024-01-15T11:33:49;6.93;;;2.70;;
77513;SDS011;66626;48.872;9.084;2024-01-15T11:36:14;6.32;;;2.60;;
77513;SDS011;66626;48.872;9.084;2024-01-15T11:38:40;6.30;;;2.97;;
77513;SDS011;66626;48.872;9.084;2024-01-15T11:41:14;4.60;;;1.58;;
77513;SDS011;66626;48.872;9.084;2024-01-15T11:43:43;7.55;;;2.67;;
77513;SDS011;66626;48.872;9.084;2024-01-15T11:46:11;5.65;;;2.47;;
77513;SDS011;66626;48.872;9.084;2024-01-15T11:48:43;5.50;;;2.17;;
77513;SDS011;66626;48.872;9.084;2024-01-15T11:51:12;4.78;;;1.63;;
77513;SDS011;66626;48.872;9.084;2024-01-15T11:53:43;5.20;;;2.33;;
77513;SDS011;66626;48.872;9.084;2024-01-15T11:56:16;7.80;;;3.33;;
77513;SDS011;66626;48.872;9.084;2024-01-15T11:58:42;8.40;;;3.10;;
77513;SDS011;66626;48.872;9.084;2024-01-15T12:01:08;6.07;;;3.22;;
77513;SDS011;66626;48.872;9.084;2024-01-15T12:03:35;3.92;;;1.63;;
77513;SDS011;66626;48.872;9.084;2024-01-15T12:06:00;5.70;;;2.25;;
77513;SDS011;66626;48.872;9.084;2024-01-15T12:08:26;5.57;;;2.05;;
77513;SDS011;66626;48.872;9.084;2024-01-15T12:10:52;6.97;;;3.15;;
77513;SDS011;66626;48.872;9.084;2024-01-15T12:13:18;7.75;;;3.08;;
77513;SDS011;66626;48.872;9.084;2024-01-15T12:15:44;5.15;;;2.42;;
77513;SDS011;66626;48.872;9.084;2024-01-15T12:18:14;8.13;;;3.42;;
77513;SDS011;66626;48.872;9.084;2024-01-15T12:23:07;5.43;;;2.65;;
77513;SDS011;66626;48.872;9.084;2024-01-15T12:25:33;7.30;;;2.90;;
77513;SDS011;66626;48.872;9.084;2024-01-15T12:27:59;5.93;;;2.08;;
77513;SDS011;66626;48.872;9.084;2024-01-15T12:30:25;6.13;;;2.72;;
77513;SDS011;66626;48.872;9.084;2024-01-15T12:32:51;3.13;;;1.67;;
77513;SDS011;66626;48.872;9.084;2024-01-15T12:35:17;8.23;;;2.30;;
77513;SDS011;66626;48.872;9.084;2024-01-15T12:37:42;5.93;;;2.17;;
77513;SDS011;66626;48.872;9.084;2024-01-15T12:40:09;6.90;;;2.55;;
77513;SDS011;66626;48.872;9.084;2024-01-15T12:42:44;6.75;;;2.67;;
77513;SDS011;66626;48.872;9.084;2024-01-15T12:45:09;6.85;;;2.67;;
77513;SDS011;66626;48.872;9.084;2024-01-15T12:47:36;6.50;;;2.53;;
77513;SDS011;66626;48.872;9.084;2024-01-15T12:50:02;4.82;;;1.88;;
77513;SDS011;66626;48.872;9.084;2024-01-15T12:52:27;5.95;;;1.95;;
77513;SDS011;66626;48.872;9.084;2024-01-15T12:54:53;4.00;;;1.35;;
77513;SDS011;66626;48.872;9.084;2024-01-15T12:57:19;7.95;;;3.67;;
77513;SDS011;66626;48.872;9.084;2024-01-15T12:59:44;6.40;;;2.25;;
77513;SDS011;66626;48.872;9.084;2024-01-15T13:02:13;3.45;;;1.38;;
77513;SDS011;66626;48.872;9.084;2024-01-15T13:04:38;4.40;;;2.15;;
77513;SDS011;66626;48.872;9.084;2024-01-15T13:07:03;4.70;;;1.98;;
77513;SDS011;66626;48.872;9.084;2024-01-15T13:09:29;4.53;;;1.98;;
77513;SDS011;66626;48.872;9.084;2024-01-15T13:11:55;5.10;;;2.30;;
77513;SDS011;66626;48.872;9.084;2024-01-15T13:14:20;4.75;;;1.83;;
77513;SDS011;66626;48.872;9.084;2024-01-15T13:16:45;4.93;;;2.05;;
77513;SDS011;66626;48.872;9.084;2024-01-15T13:19:11;4.75;;;1.92;;
77513;SDS011;66626;48.872;9.084;2024-01-15T13:21:37;4.85;;;1.63;;
77513;SDS011;66626;48.872;9.084;2024-01-15T13:24:03;4.22;;;1.67;;
77513;SDS011;66626;48.872;9.084;2024-01-15T13:26:30;3.97;;;1.42;;
77513;SDS011;66626;48.872;9.084;2024-01-15T13:28:56;4.43;;;1.40;;
77513;SDS011;66626;48.872;9.084;2024-01-15T13:31:22;4.90;;;2.20;;
77513;SDS011;66626;48.872;9.084;2024-01-15T13:33:47;3.33;;;1.67;;
77513;SDS011;66626;48.872;9.084;2024-01-15T13:36:12;4.35;;;1.77;;
77513;SDS011;66626;48.872;9.084;2024-01-15T13:38:38;5.28;;;2.20;;
77513;SDS011;66626;48.872;9.084;2024-01-15T13:41:06;5.35;;;1.80;;
77513;SDS011;66626;48.872;9.084;2024-01-15T13:43:31;5.63;;;2.40;;
77513;SDS011;66626;48.872;9.084;2024-01-15T13:45:57;5.18;;;2.25;;
77513;SDS011;66626;48.872;9.084;2024-01-15T13:48:23;4.03;;;1.38;;
77513;SDS011;66626;48.872;9.084;2024-01-15T13:50:48;4.47;;;2.05;;
77513;SDS011;66626;48.872;9.084;2024-01-15T13:53:15;4.13;;;1.80;;
77513;SDS011;66626;48.872;9.084;2024-01-15T13:55:41;8.40;;;2.67;;
77513;SDS011;66626;48.872;9.084;2024-01-15T13:58:06;5.47;;;2.40;;
77513;SDS011;66626;48.872;9.084;2024-01-15T14:00:32;6.65;;;2.70;;
77513;SDS011;66626;48.872;9.084;2024-01-15T14:02:58;3.92;;;2.10;;
77513;SDS011;66626;48.872;9.084;2024-01-15T14:05:23;4.97;;;2.33;;
77513;SDS011;66626;48.872;9.084;2024-01-15T14:07:49;4.32;;;1.92;;
77513;SDS011;66626;48.872;9.084;2024-01-15T14:10:14;6.13;;;2.45;;
77513;SDS011;66626;48.872;9.084;2024-01-15T14:12:39;8.88;;;2.95;;
77513;SDS011;66626;48.872;9.084;2024-01-15T14:15:05;5.60;;;2.50;;
77513;SDS011;66626;48.872;9.084;2024-01-15T14:17:31;5.82;;;2.50;;
77513;SDS011;66626;48.872;9.084;2024-01-15T14:19:56;6.93;;;2.60;;
77513;SDS011;66626;48.872;9.084;2024-01-15T14:22:22;7.05;;;2.63;;
77513;SDS011;66626;48.872;9.084;2024-01-15T14:24:49;8.85;;;3.53;;
77513;SDS011;66626;48.872;9.084;2024-01-15T14:27:15;7.40;;;3.38;;
77513;SDS011;66626;48.872;9.084;2024-01-15T14:29:41;6.00;;;2.47;;
77513;SDS011;66626;48.872;9.084;2024-01-15T14:32:06;7.55;;;3.47;;
77513;SDS011;66626;48.872;9.084;2024-01-15T14:34:31;4.90;;;2.78;;
77513;SDS011;66626;48.872;9.084;2024-01-15T14:36:57;5.00;;;2.55;;
77513;SDS011;66626;48.872;9.084;2024-01-15T14:39:22;8.10;;;2.58;;
77513;SDS011;66626;48.872;9.084;2024-01-15T14:41:48;7.90;;;3.80;;